sensor_id;sensor_type;location;lat;lon;timestamp;temperature;humidity
9057;DHT22;4563;54.756;9.400;2023-07-13T00:02:05;19.00;70.60
9057;DHT22;4563;54.756;9.400;2023-07-13T00:04:32;19.00;70.70
9057;DHT22;4563;54.756;9.400;2023-07-13T00:06:59;19.00;70.80
9057;DHT22;4563;54.756;9.400;2023-07-13T00:09:26;19.00;70.80
9057;DHT22;4563;54.756;9.400;2023-07-13T00:11:54;18.90;70.80
9057;DHT22;4563;54.756;9.400;2023-07-13T00:14:22;18.90;70.80
9057;DHT22;4563;54.756;9.400;2023-07-13T00:16:50;18.90;70.80
9057;DHT22;4563;54.756;9.400;2023-07-13T00:19:18;18.80;70.80
9057;DHT22;4563;54.756;9.400;2023-07-13T00:21:45;18.80;70.80
9057;DHT22;4563;54.756;9.400;2023-07-13T00:24:14;18.80;70.90
9057;DHT22;4563;54.756;9.400;2023-07-13T00:26:44;18.80;70.90
9057;DHT22;4563;54.756;9.400;2023-07-13T00:29:11;18.80;70.90
9057;DHT22;4563;54.756;9.400;2023-07-13T00:31:38;18.70;70.90
9057;DHT22;4563;54.756;9.400;2023-07-13T00:34:11;18.70;71.00
9057;DHT22;4563;54.756;9.400;2023-07-13T00:36:38;18.70;71.10
9057;DHT22;4563;54.756;9.400;2023-07-13T00:39:05;18.70;71.20
9057;DHT22;4563;54.756;9.400;2023-07-13T00:41:35;18.70;71.30
9057;DHT22;4563;54.756;9.400;2023-07-13T00:44:02;18.70;71.40
9057;DHT22;4563;54.756;9.400;2023-07-13T00:46:33;18.60;71.40
9057;DHT22;4563;54.756;9.400;2023-07-13T00:49:02;18.60;71.50
9057;DHT22;4563;54.756;9.400;2023-07-13T00:51:40;18.60;71.50
9057;DHT22;4563;54.756;9.400;2023-07-13T00:54:11;18.60;71.50
9057;DHT22;4563;54.756;9.400;2023-07-13T00:56:41;18.60;71.50
9057;DHT22;4563;54.756;9.400;2023-07-13T00:59:11;18.60;71.50
9057;DHT22;4563;54.756;9.400;2023-07-13T01:01:38;18.50;71.40
9057;DHT22;4563;54.756;9.400;2023-07-13T01:04:07;18.50;71.40
9057;DHT22;4563;54.756;9.400;2023-07-13T01:06:36;18.50;71.50
9057;DHT22;4563;54.756;9.400;2023-07-13T01:09:04;18.50;71.50
9057;DHT22;4563;54.756;9.400;2023-07-13T01:11:31;18.40;71.40
9057;DHT22;4563;54.756;9.400;2023-07-13T01:13:59;18.40;71.40
9057;DHT22;4563;54.756;9.400;2023-07-13T01:16:33;18.50;71.60
9057;DHT22;4563;54.756;9.400;2023-07-13T01:19:01;18.40;71.50
9057;DHT22;4563;54.756;9.400;2023-07-13T01:21:34;18.40;71.60
9057;DHT22;4563;54.756;9.400;2023-07-13T01:24:03;18.40;71.70
9057;DHT22;4563;54.756;9.400;2023-07-13T01:26:31;18.40;71.90
9057;DHT22;4563;54.756;9.400;2023-07-13T01:28:57;18.30;71.80
9057;DHT22;4563;54.756;9.400;2023-07-13T01:31:26;18.30;72.00
9057;DHT22;4563;54.756;9.400;2023-07-13T01:33:53;18.30;72.20
9057;DHT22;4563;54.756;9.400;2023-07-13T01:36:20;18.30;72.40
9057;DHT22;4563;54.756;9.400;2023-07-13T01:38:52;18.30;72.50
9057;DHT22;4563;54.756;9.400;2023-07-13T01:41:18;18.20;72.50
9057;DHT22;4563;54.756;9.400;2023-07-13T01:43:46;18.30;72.70
9057;DHT22;4563;54.756;9.400;2023-07-13T01:46:13;18.30;72.80
9057;DHT22;4563;54.756;9.400;2023-07-13T01:48:40;18.20;72.80
9057;DHT22;4563;54.756;9.400;2023-07-13T01:51:07;18.30;73.10
9057;DHT22;4563;54.756;9.400;2023-07-13T01:53:34;18.30;73.20
9057;DHT22;4563;54.756;9.400;2023-07-13T01:56:02;18.30;73.30
9057;DHT22;4563;54.756;9.400;2023-07-13T01:58:29;18.30;73.50
9057;DHT22;4563;54.756;9.400;2023-07-13T02:00:56;18.30;73.60
9057;DHT22;4563;54.756;9.400;2023-07-13T02:03:23;18.30;73.60
9057;DHT22;4563;54.756;9.400;2023-07-13T02:05:51;18.30;73.70
9057;DHT22;4563;54.756;9.400;2023-07-13T02:08:18;18.30;73.80
9057;DHT22;4563;54.756;9.400;2023-07-13T02:10:45;18.40;73.90
9057;DHT22;4563;54.756;9.400;2023-07-13T02:13:13;18.40;73.90
9057;DHT22;4563;54.756;9.400;2023-07-13T02:15:40;18.40;73.80
9057;DHT22;4563;54.756;9.400;2023-07-13T02:18:07;18.40;73.80
9057;DHT22;4563;54.756;9.400;2023-07-13T02:20:34;18.40;73.80
9057;DHT22;4563;54.756;9.400;2023-07-13T02:23:00;18.40;73.90
9057;DHT22;4563;54.756;9.400;2023-07-13T02:25:27;18.40;73.90
9057;DHT22;4563;54.756;9.400;2023-07-13T02:27:54;18.40;74.00
9057;DHT22;4563;54.756;9.400;2023-07-13T02:30:22;18.40;74.10
9057;DHT22;4563;54.756;9.400;2023-07-13T02:32:52;18.30;74.20
9057;DHT22;4563;54.756;9.400;2023-07-13T02:35:20;18.40;74.30
9057;DHT22;4563;54.756;9.400;2023-07-13T02:37:57;18.40;74.30
9057;DHT22;4563;54.756;9.400;2023-07-13T02:40:24;18.40;74.30
9057;DHT22;4563;54.756;9.400;2023-07-13T02:42:53;18.40;74.30
9057;DHT22;4563;54.756;9.400;2023-07-13T02:45:25;18.40;74.30
9057;DHT22;4563;54.756;9.400;2023-07-13T02:47:54;18.40;74.40
9057;DHT22;4563;54.756;9.400;2023-07-13T02:50:21;18.40;74.60
9057;DHT22;4563;54.756;9.400;2023-07-13T02:52:48;18.40;74.60
9057;DHT22;4563;54.756;9.400;2023-07-13T02:55:15;18.40;74.80
9057;DHT22;4563;54.756;9.400;2023-07-13T02:57:42;18.40;75.00
9057;DHT22;4563;54.756;9.400;2023-07-13T03:00:10;18.40;75.20
9057;DHT22;4563;54.756;9.400;2023-07-13T03:02:38;18.50;75.50
9057;DHT22;4563;54.756;9.400;2023-07-13T03:05:08;18.50;75.50
9057;DHT22;4563;54.756;9.400;2023-07-13T03:07:40;18.50;75.70
9057;DHT22;4563;54.756;9.400;2023-07-13T03:10:08;18.50;75.80
9057;DHT22;4563;54.756;9.400;2023-07-13T03:12:35;18.50;76.00
9057;DHT22;4563;54.756;9.400;2023-07-13T03:15:02;18.50;76.00
9057;DHT22;4563;54.756;9.400;2023-07-13T03:17:29;18.60;76.30
9057;DHT22;4563;54.756;9.400;2023-07-13T03:19:57;18.60;76.30
9057;DHT22;4563;54.756;9.400;2023-07-13T03:22:25;18.60;76.40
9057;DHT22;4563;54.756;9.400;2023-07-13T03:24:55;18.60;76.40
9057;DHT22;4563;54.756;9.400;2023-07-13T03:27:23;18.60;76.40
9057;DHT22;4563;54.756;9.400;2023-07-13T03:29:50;18.60;76.30
9057;DHT22;4563;54.756;9.400;2023-07-13T03:32:17;18.70;76.50
9057;DHT22;4563;54.756;9.400;2023-07-13T03:34:43;18.70;76.40
9057;DHT22;4563;54.756;9.400;2023-07-13T03:37:15;18.70;76.40
9057;DHT22;4563;54.756;9.400;2023-07-13T03:39:45;18.70;76.50
9057;DHT22;4563;54.756;9.400;2023-07-13T03:42:11;18.60;76.40
9057;DHT22;4563;54.756;9.400;2023-07-13T03:44:39;18.70;76.50
9057;DHT22;4563;54.756;9.400;2023-07-13T03:47:06;18.70;76.50
9057;DHT22;4563;54.756;9.400;2023-07-13T03:49:35;18.60;76.40
9057;DHT22;4563;54.756;9.400;2023-07-13T03:52:02;18.70;76.40
9057;DHT22;4563;54.756;9.400;2023-07-13T03:54:30;18.70;76.40
9057;DHT22;4563;54.756;9.400;2023-07-13T03:56:58;18.70;76.40
9057;DHT22;4563;54.756;9.400;2023-07-13T03:59:25;18.70;76.40
9057;DHT22;4563;54.756;9.400;2023-07-13T04:01:52;18.60;76.30
9057;DHT22;4563;54.756;9.400;2023-07-13T04:04:19;18.60;76.20
9057;DHT22;4563;54.756;9.400;2023-07-13T04:06:46;18.60;76.40
9057;DHT22;4563;54.756;9.400;2023-07-13T04:09:13;18.60;76.30
9057;DHT22;4563;54.756;9.400;2023-07-13T04:11:43;18.60;76.20
9057;DHT22;4563;54.756;9.400;2023-07-13T04:14:10;18.60;76.10
9057;DHT22;4563;54.756;9.400;2023-07-13T04:16:37;18.50;75.80
9057;DHT22;4563;54.756;9.400;2023-07-13T04:19:04;18.50;75.70
9057;DHT22;4563;54.756;9.400;2023-07-13T04:21:31;18.50;75.60
9057;DHT22;4563;54.756;9.400;2023-07-13T04:24:00;18.40;75.50
9057;DHT22;4563;54.756;9.400;2023-07-13T04:26:37;18.40;75.50
9057;DHT22;4563;54.756;9.400;2023-07-13T04:29:08;18.40;75.50
9057;DHT22;4563;54.756;9.400;2023-07-13T04:31:35;18.40;76.10
9057;DHT22;4563;54.756;9.400;2023-07-13T04:34:01;18.40;75.70
9057;DHT22;4563;54.756;9.400;2023-07-13T04:36:29;18.40;75.70
9057;DHT22;4563;54.756;9.400;2023-07-13T04:38:57;18.30;75.60
9057;DHT22;4563;54.756;9.400;2023-07-13T04:41:23;18.30;75.70
9057;DHT22;4563;54.756;9.400;2023-07-13T04:43:50;18.30;75.60
9057;DHT22;4563;54.756;9.400;2023-07-13T04:46:18;18.30;75.60
9057;DHT22;4563;54.756;9.400;2023-07-13T04:48:46;18.20;75.50
9057;DHT22;4563;54.756;9.400;2023-07-13T04:51:13;18.20;75.50
9057;DHT22;4563;54.756;9.400;2023-07-13T04:53:40;18.20;75.50
9057;DHT22;4563;54.756;9.400;2023-07-13T04:56:07;18.20;75.60
9057;DHT22;4563;54.756;9.400;2023-07-13T04:58:35;18.20;75.70
9057;DHT22;4563;54.756;9.400;2023-07-13T05:01:02;18.10;75.60
9057;DHT22;4563;54.756;9.400;2023-07-13T05:03:31;18.10;75.70
9057;DHT22;4563;54.756;9.400;2023-07-13T05:06:07;18.10;75.70
9057;DHT22;4563;54.756;9.400;2023-07-13T05:08:35;18.10;75.80
9057;DHT22;4563;54.756;9.400;2023-07-13T05:11:03;18.10;75.90
9057;DHT22;4563;54.756;9.400;2023-07-13T05:13:37;18.10;76.00
9057;DHT22;4563;54.756;9.400;2023-07-13T05:16:05;18.10;76.00
9057;DHT22;4563;54.756;9.400;2023-07-13T05:18:34;18.10;76.10
9057;DHT22;4563;54.756;9.400;2023-07-13T05:21:04;18.10;76.10
9057;DHT22;4563;54.756;9.400;2023-07-13T05:23:32;18.10;76.20
9057;DHT22;4563;54.756;9.400;2023-07-13T05:26:00;18.10;76.20
9057;DHT22;4563;54.756;9.400;2023-07-13T05:28:27;18.10;76.20
9057;DHT22;4563;54.756;9.400;2023-07-13T05:30:55;18.10;76.20
9057;DHT22;4563;54.756;9.400;2023-07-13T05:33:25;18.10;76.20
9057;DHT22;4563;54.756;9.400;2023-07-13T05:35:54;18.10;76.30
9057;DHT22;4563;54.756;9.400;2023-07-13T05:38:21;18.10;76.30
9057;DHT22;4563;54.756;9.400;2023-07-13T05:40:49;18.10;76.40
9057;DHT22;4563;54.756;9.400;2023-07-13T05:43:19;18.10;76.60
9057;DHT22;4563;54.756;9.400;2023-07-13T05:45:48;18.10;76.70
9057;DHT22;4563;54.756;9.400;2023-07-13T05:48:15;18.10;76.90
9057;DHT22;4563;54.756;9.400;2023-07-13T05:50:42;18.10;77.00
9057;DHT22;4563;54.756;9.400;2023-07-13T05:53:11;18.10;77.10
9057;DHT22;4563;54.756;9.400;2023-07-13T05:55:41;18.00;77.10
9057;DHT22;4563;54.756;9.400;2023-07-13T05:58:12;18.10;77.30
9057;DHT22;4563;54.756;9.400;2023-07-13T06:00:40;18.10;77.30
9057;DHT22;4563;54.756;9.400;2023-07-13T06:03:09;18.10;77.50
9057;DHT22;4563;54.756;9.400;2023-07-13T06:05:36;18.10;77.50
9057;DHT22;4563;54.756;9.400;2023-07-13T06:08:05;18.10;77.60
9057;DHT22;4563;54.756;9.400;2023-07-13T06:10:34;18.20;77.80
9057;DHT22;4563;54.756;9.400;2023-07-13T06:13:01;18.20;77.80
9057;DHT22;4563;54.756;9.400;2023-07-13T06:15:28;18.20;77.80
9057;DHT22;4563;54.756;9.400;2023-07-13T06:17:55;18.20;77.90
9057;DHT22;4563;54.756;9.400;2023-07-13T06:20:22;18.20;77.90
9057;DHT22;4563;54.756;9.400;2023-07-13T06:22:49;18.20;77.90
9057;DHT22;4563;54.756;9.400;2023-07-13T06:25:16;18.20;78.00
9057;DHT22;4563;54.756;9.400;2023-07-13T06:27:45;18.30;78.20
9057;DHT22;4563;54.756;9.400;2023-07-13T06:30:13;18.30;78.30
9057;DHT22;4563;54.756;9.400;2023-07-13T06:32:40;18.30;78.30
9057;DHT22;4563;54.756;9.400;2023-07-13T06:35:08;18.30;78.30
9057;DHT22;4563;54.756;9.400;2023-07-13T06:37:38;18.30;78.30
9057;DHT22;4563;54.756;9.400;2023-07-13T06:40:07;18.40;78.30
9057;DHT22;4563;54.756;9.400;2023-07-13T06:42:34;18.30;78.20
9057;DHT22;4563;54.756;9.400;2023-07-13T06:45:05;18.40;78.20
9057;DHT22;4563;54.756;9.400;2023-07-13T06:47:32;18.40;78.20
9057;DHT22;4563;54.756;9.400;2023-07-13T06:50:00;18.30;78.10
9057;DHT22;4563;54.756;9.400;2023-07-13T06:52:28;18.40;78.30
9057;DHT22;4563;54.756;9.400;2023-07-13T06:54:56;18.30;78.00
9057;DHT22;4563;54.756;9.400;2023-07-13T06:57:22;18.30;78.10
9057;DHT22;4563;54.756;9.400;2023-07-13T06:59:49;18.40;78.20
9057;DHT22;4563;54.756;9.400;2023-07-13T07:02:19;18.40;78.20
9057;DHT22;4563;54.756;9.400;2023-07-13T07:04:46;18.30;78.20
9057;DHT22;4563;54.756;9.400;2023-07-13T07:07:13;18.30;78.30
9057;DHT22;4563;54.756;9.400;2023-07-13T07:09:41;18.30;78.40
9057;DHT22;4563;54.756;9.400;2023-07-13T07:12:09;18.30;78.60
9057;DHT22;4563;54.756;9.400;2023-07-13T07:14:36;18.30;78.60
9057;DHT22;4563;54.756;9.400;2023-07-13T07:17:04;18.40;78.80
9057;DHT22;4563;54.756;9.400;2023-07-13T07:19:36;18.40;78.90
9057;DHT22;4563;54.756;9.400;2023-07-13T07:22:04;18.40;78.90
9057;DHT22;4563;54.756;9.400;2023-07-13T07:24:31;18.30;78.80
9057;DHT22;4563;54.756;9.400;2023-07-13T07:26:58;18.40;79.00
9057;DHT22;4563;54.756;9.400;2023-07-13T07:29:27;18.40;79.00
9057;DHT22;4563;54.756;9.400;2023-07-13T07:31:54;18.40;79.10
9057;DHT22;4563;54.756;9.400;2023-07-13T07:34:22;18.40;79.10
9057;DHT22;4563;54.756;9.400;2023-07-13T07:36:51;18.40;79.30
9057;DHT22;4563;54.756;9.400;2023-07-13T07:39:20;18.40;79.40
9057;DHT22;4563;54.756;9.400;2023-07-13T07:41:48;18.40;79.50
9057;DHT22;4563;54.756;9.400;2023-07-13T07:44:15;18.50;79.60
9057;DHT22;4563;54.756;9.400;2023-07-13T07:46:42;18.50;79.80
9057;DHT22;4563;54.756;9.400;2023-07-13T07:49:09;18.50;79.90
9057;DHT22;4563;54.756;9.400;2023-07-13T07:51:37;18.60;80.30
9057;DHT22;4563;54.756;9.400;2023-07-13T07:54:05;18.60;80.30
9057;DHT22;4563;54.756;9.400;2023-07-13T07:56:33;18.60;80.20
9057;DHT22;4563;54.756;9.400;2023-07-13T07:59:00;18.60;80.20
9057;DHT22;4563;54.756;9.400;2023-07-13T08:01:26;18.60;80.00
9057;DHT22;4563;54.756;9.400;2023-07-13T08:03:53;18.70;79.90
9057;DHT22;4563;54.756;9.400;2023-07-13T08:06:20;18.70;80.00
9057;DHT22;4563;54.756;9.400;2023-07-13T08:08:47;18.70;80.60
9057;DHT22;4563;54.756;9.400;2023-07-13T08:11:17;18.80;81.20
9057;DHT22;4563;54.756;9.400;2023-07-13T08:13:49;18.80;81.90
9057;DHT22;4563;54.756;9.400;2023-07-13T08:16:16;18.90;82.60
9057;DHT22;4563;54.756;9.400;2023-07-13T08:18:45;19.10;83.00
9057;DHT22;4563;54.756;9.400;2023-07-13T08:21:12;19.20;83.00
9057;DHT22;4563;54.756;9.400;2023-07-13T08:23:39;19.30;82.80
9057;DHT22;4563;54.756;9.400;2023-07-13T08:26:07;19.50;82.50
9057;DHT22;4563;54.756;9.400;2023-07-13T08:28:36;19.70;82.30
9057;DHT22;4563;54.756;9.400;2023-07-13T08:31:10;19.90;82.10
9057;DHT22;4563;54.756;9.400;2023-07-13T08:33:38;20.00;82.10
9057;DHT22;4563;54.756;9.400;2023-07-13T08:36:06;20.20;82.40
9057;DHT22;4563;54.756;9.400;2023-07-13T08:38:33;20.40;83.30
9057;DHT22;4563;54.756;9.400;2023-07-13T08:41:09;20.60;82.20
9057;DHT22;4563;54.756;9.400;2023-07-13T08:43:41;20.80;81.50
9057;DHT22;4563;54.756;9.400;2023-07-13T08:46:13;21.00;80.80
9057;DHT22;4563;54.756;9.400;2023-07-13T08:48:44;21.20;80.10
9057;DHT22;4563;54.756;9.400;2023-07-13T08:51:24;21.30;79.60
9057;DHT22;4563;54.756;9.400;2023-07-13T08:53:58;21.40;78.80
9057;DHT22;4563;54.756;9.400;2023-07-13T08:56:33;21.50;78.50
9057;DHT22;4563;54.756;9.400;2023-07-13T08:59:09;21.60;77.90
9057;DHT22;4563;54.756;9.400;2023-07-13T09:01:53;21.60;77.30
9057;DHT22;4563;54.756;9.400;2023-07-13T09:04:27;21.60;76.70
9057;DHT22;4563;54.756;9.400;2023-07-13T09:07:12;21.60;76.70
9057;DHT22;4563;54.756;9.400;2023-07-13T09:09:52;21.60;76.00
9057;DHT22;4563;54.756;9.400;2023-07-13T09:12:30;21.60;75.70
9057;DHT22;4563;54.756;9.400;2023-07-13T09:15:02;21.60;75.30
9057;DHT22;4563;54.756;9.400;2023-07-13T09:17:35;21.60;75.10
9057;DHT22;4563;54.756;9.400;2023-07-13T09:20:21;21.60;74.70
9057;DHT22;4563;54.756;9.400;2023-07-13T09:22:49;21.60;74.80
9057;DHT22;4563;54.756;9.400;2023-07-13T09:25:24;21.50;75.50
9057;DHT22;4563;54.756;9.400;2023-07-13T09:27:56;21.50;76.30
9057;DHT22;4563;54.756;9.400;2023-07-13T09:30:32;21.50;76.80
9057;DHT22;4563;54.756;9.400;2023-07-13T09:33:00;21.60;76.70
9057;DHT22;4563;54.756;9.400;2023-07-13T09:35:28;21.60;76.40
9057;DHT22;4563;54.756;9.400;2023-07-13T09:38:03;21.70;76.00
9057;DHT22;4563;54.756;9.400;2023-07-13T09:40:39;21.70;75.20
9057;DHT22;4563;54.756;9.400;2023-07-13T09:43:10;21.80;74.40
9057;DHT22;4563;54.756;9.400;2023-07-13T09:45:38;21.80;73.70
9057;DHT22;4563;54.756;9.400;2023-07-13T09:48:10;21.70;72.90
9057;DHT22;4563;54.756;9.400;2023-07-13T09:50:38;21.70;72.50
9057;DHT22;4563;54.756;9.400;2023-07-13T09:53:11;21.60;72.30
9057;DHT22;4563;54.756;9.400;2023-07-13T09:55:40;21.60;72.10
9057;DHT22;4563;54.756;9.400;2023-07-13T09:58:11;21.50;72.10
9057;DHT22;4563;54.756;9.400;2023-07-13T10:00:41;21.50;72.20
9057;DHT22;4563;54.756;9.400;2023-07-13T10:03:19;21.40;72.90
9057;DHT22;4563;54.756;9.400;2023-07-13T10:05:49;21.30;72.10
9057;DHT22;4563;54.756;9.400;2023-07-13T10:08:22;21.30;72.70
9057;DHT22;4563;54.756;9.400;2023-07-13T10:10:54;21.20;73.40
9057;DHT22;4563;54.756;9.400;2023-07-13T10:13:26;21.20;74.40
9057;DHT22;4563;54.756;9.400;2023-07-13T10:15:56;21.20;74.90
9057;DHT22;4563;54.756;9.400;2023-07-13T10:18:24;21.20;74.70
9057;DHT22;4563;54.756;9.400;2023-07-13T10:20:54;21.20;74.60
9057;DHT22;4563;54.756;9.400;2023-07-13T10:23:31;21.20;74.70
9057;DHT22;4563;54.756;9.400;2023-07-13T10:25:59;21.30;75.50
9057;DHT22;4563;54.756;9.400;2023-07-13T10:28:29;21.30;75.60
9057;DHT22;4563;54.756;9.400;2023-07-13T10:30:59;21.40;75.60
9057;DHT22;4563;54.756;9.400;2023-07-13T10:33:28;21.50;75.30
9057;DHT22;4563;54.756;9.400;2023-07-13T10:36:14;21.50;75.10
9057;DHT22;4563;54.756;9.400;2023-07-13T10:38:41;21.60;75.00
9057;DHT22;4563;54.756;9.400;2023-07-13T10:41:11;21.60;74.80
9057;DHT22;4563;54.756;9.400;2023-07-13T10:43:42;21.70;75.00
9057;DHT22;4563;54.756;9.400;2023-07-13T10:46:14;21.70;75.50
9057;DHT22;4563;54.756;9.400;2023-07-13T10:48:44;21.80;76.20
9057;DHT22;4563;54.756;9.400;2023-07-13T10:51:14;21.80;76.30
9057;DHT22;4563;54.756;9.400;2023-07-13T10:53:42;21.90;76.10
9057;DHT22;4563;54.756;9.400;2023-07-13T10:56:27;22.00;75.80
9057;DHT22;4563;54.756;9.400;2023-07-13T10:59:05;22.10;75.90
9057;DHT22;4563;54.756;9.400;2023-07-13T11:01:46;22.20;75.70
9057;DHT22;4563;54.756;9.400;2023-07-13T11:04:15;22.30;75.30
9057;DHT22;4563;54.756;9.400;2023-07-13T11:06:43;22.40;75.00
9057;DHT22;4563;54.756;9.400;2023-07-13T11:09:35;22.50;75.20
9057;DHT22;4563;54.756;9.400;2023-07-13T11:12:07;22.70;75.50
9057;DHT22;4563;54.756;9.400;2023-07-13T11:14:36;22.70;74.70
9057;DHT22;4563;54.756;9.400;2023-07-13T11:17:37;22.90;74.30
9057;DHT22;4563;54.756;9.400;2023-07-13T11:20:20;23.10;74.00
9057;DHT22;4563;54.756;9.400;2023-07-13T11:22:49;23.20;74.00
9057;DHT22;4563;54.756;9.400;2023-07-13T11:25:27;23.40;72.80
9057;DHT22;4563;54.756;9.400;2023-07-13T11:28:12;23.50;72.70
9057;DHT22;4563;54.756;9.400;2023-07-13T11:30:42;23.70;72.70
9057;DHT22;4563;54.756;9.400;2023-07-13T11:33:19;23.70;72.00
9057;DHT22;4563;54.756;9.400;2023-07-13T11:35:53;23.90;71.90
9057;DHT22;4563;54.756;9.400;2023-07-13T11:38:30;24.00;71.40
9057;DHT22;4563;54.756;9.400;2023-07-13T11:41:01;24.10;71.10
9057;DHT22;4563;54.756;9.400;2023-07-13T11:43:29;24.20;70.50
9057;DHT22;4563;54.756;9.400;2023-07-13T11:45:59;24.30;69.60
9057;DHT22;4563;54.756;9.400;2023-07-13T11:48:39;24.40;69.00
9057;DHT22;4563;54.756;9.400;2023-07-13T11:51:09;24.40;68.30
9057;DHT22;4563;54.756;9.400;2023-07-13T11:53:48;24.50;67.90
9057;DHT22;4563;54.756;9.400;2023-07-13T11:56:18;24.50;67.80
9057;DHT22;4563;54.756;9.400;2023-07-13T11:58:49;24.60;68.00
9057;DHT22;4563;54.756;9.400;2023-07-13T12:01:20;24.60;67.90
9057;DHT22;4563;54.756;9.400;2023-07-13T12:03:50;24.70;67.40
9057;DHT22;4563;54.756;9.400;2023-07-13T12:06:27;24.70;66.70
9057;DHT22;4563;54.756;9.400;2023-07-13T12:08:58;24.80;66.30
9057;DHT22;4563;54.756;9.400;2023-07-13T12:11:26;24.70;65.60
9057;DHT22;4563;54.756;9.400;2023-07-13T12:13:53;24.80;65.70
9057;DHT22;4563;54.756;9.400;2023-07-13T12:16:26;24.70;64.90
9057;DHT22;4563;54.756;9.400;2023-07-13T12:18:56;24.70;64.90
9057;DHT22;4563;54.756;9.400;2023-07-13T12:21:30;24.70;64.50
9057;DHT22;4563;54.756;9.400;2023-07-13T12:23:58;24.60;64.80
9057;DHT22;4563;54.756;9.400;2023-07-13T12:26:28;24.60;64.70
9057;DHT22;4563;54.756;9.400;2023-07-13T12:28:56;24.60;64.70
9057;DHT22;4563;54.756;9.400;2023-07-13T12:31:31;24.60;64.80
9057;DHT22;4563;54.756;9.400;2023-07-13T12:34:03;24.50;65.00
9057;DHT22;4563;54.756;9.400;2023-07-13T12:36:32;24.40;65.10
9057;DHT22;4563;54.756;9.400;2023-07-13T12:39:03;24.40;65.20
9057;DHT22;4563;54.756;9.400;2023-07-13T12:41:31;24.40;65.20
9057;DHT22;4563;54.756;9.400;2023-07-13T12:43:59;24.30;64.80
9057;DHT22;4563;54.756;9.400;2023-07-13T12:46:26;24.30;64.70
9057;DHT22;4563;54.756;9.400;2023-07-13T12:48:54;24.30;64.70
9057;DHT22;4563;54.756;9.400;2023-07-13T12:51:27;24.20;64.10
9057;DHT22;4563;54.756;9.400;2023-07-13T12:53:59;24.20;63.20
9057;DHT22;4563;54.756;9.400;2023-07-13T12:56:33;24.10;63.30
9057;DHT22;4563;54.756;9.400;2023-07-13T12:59:05;24.00;62.20
9057;DHT22;4563;54.756;9.400;2023-07-13T13:01:35;23.90;62.40
9057;DHT22;4563;54.756;9.400;2023-07-13T13:04:04;23.80;62.50
9057;DHT22;4563;54.756;9.400;2023-07-13T13:06:36;23.70;62.90
9057;DHT22;4563;54.756;9.400;2023-07-13T13:09:11;23.60;63.50
9057;DHT22;4563;54.756;9.400;2023-07-13T13:11:39;23.50;63.80
9057;DHT22;4563;54.756;9.400;2023-07-13T13:14:06;23.50;64.00
9057;DHT22;4563;54.756;9.400;2023-07-13T13:16:35;23.40;64.20
9057;DHT22;4563;54.756;9.400;2023-07-13T13:19:12;23.40;64.40
9057;DHT22;4563;54.756;9.400;2023-07-13T13:21:42;23.30;64.60
9057;DHT22;4563;54.756;9.400;2023-07-13T13:24:11;23.20;64.30
9057;DHT22;4563;54.756;9.400;2023-07-13T13:26:39;23.10;64.30
9057;DHT22;4563;54.756;9.400;2023-07-13T13:29:14;23.00;64.40
9057;DHT22;4563;54.756;9.400;2023-07-13T13:31:41;22.90;64.70
9057;DHT22;4563;54.756;9.400;2023-07-13T13:34:11;22.80;64.80
9057;DHT22;4563;54.756;9.400;2023-07-13T13:36:38;22.70;65.00
9057;DHT22;4563;54.756;9.400;2023-07-13T13:39:18;22.50;65.20
9057;DHT22;4563;54.756;9.400;2023-07-13T13:41:46;22.50;65.80
9057;DHT22;4563;54.756;9.400;2023-07-13T13:44:15;22.40;66.00
9057;DHT22;4563;54.756;9.400;2023-07-13T13:46:43;22.30;66.20
9057;DHT22;4563;54.756;9.400;2023-07-13T13:49:14;22.20;66.60
9057;DHT22;4563;54.756;9.400;2023-07-13T13:51:41;22.10;67.20
9057;DHT22;4563;54.756;9.400;2023-07-13T13:54:12;22.00;67.50
9057;DHT22;4563;54.756;9.400;2023-07-13T13:56:43;22.00;68.10
9057;DHT22;4563;54.756;9.400;2023-07-13T13:59:10;21.90;68.50
9057;DHT22;4563;54.756;9.400;2023-07-13T14:01:38;21.90;68.90
9057;DHT22;4563;54.756;9.400;2023-07-13T14:04:06;21.90;69.10
9057;DHT22;4563;54.756;9.400;2023-07-13T14:06:34;21.90;69.40
9057;DHT22;4563;54.756;9.400;2023-07-13T14:09:01;21.80;69.50
9057;DHT22;4563;54.756;9.400;2023-07-13T14:11:31;21.80;69.70
9057;DHT22;4563;54.756;9.400;2023-07-13T14:13:59;21.80;70.00
9057;DHT22;4563;54.756;9.400;2023-07-13T14:16:31;21.80;70.10
9057;DHT22;4563;54.756;9.400;2023-07-13T14:18:58;21.80;70.00
9057;DHT22;4563;54.756;9.400;2023-07-13T14:21:28;21.70;69.90
9057;DHT22;4563;54.756;9.400;2023-07-13T14:23:55;21.80;70.00
9057;DHT22;4563;54.756;9.400;2023-07-13T14:26:24;21.70;69.80
9057;DHT22;4563;54.756;9.400;2023-07-13T14:28:54;21.70;69.90
9057;DHT22;4563;54.756;9.400;2023-07-13T14:31:22;21.70;70.50
9057;DHT22;4563;54.756;9.400;2023-07-13T14:33:49;21.70;70.20
9057;DHT22;4563;54.756;9.400;2023-07-13T14:36:28;21.70;70.40
9057;DHT22;4563;54.756;9.400;2023-07-13T14:38:56;21.60;70.60
9057;DHT22;4563;54.756;9.400;2023-07-13T14:41:23;21.60;71.10
9057;DHT22;4563;54.756;9.400;2023-07-13T14:43:50;21.60;71.40
9057;DHT22;4563;54.756;9.400;2023-07-13T14:46:28;21.60;72.30
9057;DHT22;4563;54.756;9.400;2023-07-13T14:49:01;21.60;71.80
9057;DHT22;4563;54.756;9.400;2023-07-13T14:51:29;21.60;71.80
9057;DHT22;4563;54.756;9.400;2023-07-13T14:53:57;21.60;71.90
9057;DHT22;4563;54.756;9.400;2023-07-13T14:56:25;21.60;71.90
9057;DHT22;4563;54.756;9.400;2023-07-13T14:58:52;21.60;71.70
9057;DHT22;4563;54.756;9.400;2023-07-13T15:01:20;21.60;71.50
9057;DHT22;4563;54.756;9.400;2023-07-13T15:03:51;21.60;71.50
9057;DHT22;4563;54.756;9.400;2023-07-13T15:06:19;21.60;71.50
9057;DHT22;4563;54.756;9.400;2023-07-13T15:08:46;21.60;71.40
9057;DHT22;4563;54.756;9.400;2023-07-13T15:11:15;21.60;71.30
9057;DHT22;4563;54.756;9.400;2023-07-13T15:13:42;21.60;71.20
9057;DHT22;4563;54.756;9.400;2023-07-13T15:16:15;21.60;71.10
9057;DHT22;4563;54.756;9.400;2023-07-13T15:18:42;21.60;70.90
9057;DHT22;4563;54.756;9.400;2023-07-13T15:21:13;21.60;70.70
9057;DHT22;4563;54.756;9.400;2023-07-13T15:23:41;21.60;70.70
9057;DHT22;4563;54.756;9.400;2023-07-13T15:26:12;21.60;70.60
9057;DHT22;4563;54.756;9.400;2023-07-13T15:28:40;21.60;71.40
9057;DHT22;4563;54.756;9.400;2023-07-13T15:31:19;21.60;70.70
9057;DHT22;4563;54.756;9.400;2023-07-13T15:33:46;21.60;70.70
9057;DHT22;4563;54.756;9.400;2023-07-13T15:36:16;21.60;70.80
9057;DHT22;4563;54.756;9.400;2023-07-13T15:38:44;21.60;70.70
9057;DHT22;4563;54.756;9.400;2023-07-13T15:41:17;21.60;70.40
9057;DHT22;4563;54.756;9.400;2023-07-13T15:43:45;21.60;69.80
9057;DHT22;4563;54.756;9.400;2023-07-13T15:46:13;21.60;69.40
9057;DHT22;4563;54.756;9.400;2023-07-13T15:48:39;21.60;69.30
9057;DHT22;4563;54.756;9.400;2023-07-13T15:51:12;21.60;69.40
9057;DHT22;4563;54.756;9.400;2023-07-13T15:53:42;21.60;69.60
9057;DHT22;4563;54.756;9.400;2023-07-13T15:56:18;21.60;69.70
9057;DHT22;4563;54.756;9.400;2023-07-13T15:58:45;21.60;69.80
9057;DHT22;4563;54.756;9.400;2023-07-13T16:01:16;21.60;69.70
9057;DHT22;4563;54.756;9.400;2023-07-13T16:03:46;21.50;69.60
9057;DHT22;4563;54.756;9.400;2023-07-13T16:06:17;21.50;69.40
9057;DHT22;4563;54.756;9.400;2023-07-13T16:08:47;21.60;69.50
9057;DHT22;4563;54.756;9.400;2023-07-13T16:11:17;21.50;69.10
9057;DHT22;4563;54.756;9.400;2023-07-13T16:13:46;21.50;68.80
9057;DHT22;4563;54.756;9.400;2023-07-13T16:16:19;21.50;68.60
9057;DHT22;4563;54.756;9.400;2023-07-13T16:18:46;21.50;68.60